createdAt,value
2022-09-30T00:01:59.859Z,8.73
2022-09-30T00:04:29.107Z,9.10
2022-09-30T00:06:58.493Z,8.40
2022-09-30T00:09:27.612Z,10.05
2022-09-30T00:11:56.761Z,9.07
2022-09-30T00:14:26.351Z,10.27
2022-09-30T00:16:55.436Z,9.48
2022-09-30T00:19:25.898Z,8.85
2022-09-30T00:21:55.320Z,8.68
2022-09-30T00:24:24.553Z,8.48
2022-09-30T00:26:53.668Z,9.60
2022-09-30T00:29:22.848Z,9.10
2022-09-30T00:31:51.941Z,9.75
2022-09-30T00:34:21.261Z,9.93
2022-09-30T00:36:53.456Z,9.77
2022-09-30T00:39:24.267Z,8.80
2022-09-30T00:41:56.601Z,9.55
2022-09-30T00:44:54.000Z,9.18
2022-09-30T00:47:37.208Z,8.85
2022-09-30T00:50:26.535Z,9.15
2022-09-30T00:53:03.105Z,8.43
2022-09-30T00:55:39.317Z,9.18
2022-09-30T00:58:13.746Z,8.68
2022-09-30T01:00:43.454Z,8.68
2022-09-30T01:03:13.206Z,9.75
2022-09-30T01:05:42.688Z,9.25
2022-09-30T01:08:13.758Z,9.88
2022-09-30T01:10:43.251Z,9.02
2022-09-30T01:13:15.104Z,9.13
2022-09-30T01:15:59.811Z,8.88
2022-09-30T01:18:42.990Z,9.25
2022-09-30T01:21:36.260Z,12.32
2022-09-30T01:24:47.798Z,12.10
2022-09-30T01:27:49.993Z,10.48
2022-09-30T01:30:22.256Z,11.02
2022-09-30T01:33:21.796Z,11.70
2022-09-30T01:36:16.744Z,9.65
2022-09-30T01:38:55.318Z,10.95
2022-09-30T01:41:28.956Z,9.80
2022-09-30T01:44:05.807Z,10.13
2022-09-30T01:46:38.695Z,11.63
2022-09-30T01:49:18.523Z,11.10
2022-09-30T01:51:56.047Z,10.13
2022-09-30T01:54:32.043Z,8.75
2022-09-30T01:57:07.493Z,9.30
2022-09-30T01:59:42.669Z,9.82
2022-09-30T02:02:18.315Z,9.07
2022-09-30T02:04:53.528Z,8.52
2022-09-30T02:07:27.908Z,8.93
2022-09-30T02:10:01.550Z,9.73
2022-09-30T02:12:38.867Z,8.05
2022-09-30T02:15:12.800Z,9.00
2022-09-30T02:17:49.028Z,9.52
2022-09-30T02:20:24.317Z,8.82
2022-09-30T02:23:01.621Z,9.43
2022-09-30T02:25:36.372Z,8.02
2022-09-30T02:28:09.452Z,7.57
2022-09-30T02:38:28.080Z,7.22
2022-09-30T02:41:02.416Z,8.50
2022-09-30T02:43:32.719Z,8.65
2022-09-30T02:46:09.365Z,7.65
2022-09-30T02:48:45.436Z,7.80
2022-09-30T02:51:21.024Z,7.82
2022-09-30T02:53:58.276Z,8.65
2022-09-30T02:56:38.807Z,7.10
2022-09-30T02:59:08.436Z,8.50
2022-09-30T03:01:41.982Z,7.30
2022-09-30T03:04:15.405Z,8.10
2022-09-30T03:06:46.121Z,6.32
2022-09-30T03:09:15.761Z,6.60
2022-09-30T03:11:45.029Z,8.27
2022-09-30T03:14:35.113Z,6.15
2022-09-30T03:17:39.040Z,6.90
2022-09-30T03:20:24.636Z,7.32
2022-09-30T03:23:19.535Z,6.43
2022-09-30T03:25:58.258Z,6.38
2022-09-30T03:28:32.133Z,6.95
2022-09-30T03:31:10.845Z,5.80
2022-09-30T03:33:50.495Z,6.72
2022-09-30T03:36:28.044Z,6.88
2022-09-30T03:39:04.940Z,7.47
2022-09-30T03:41:40.722Z,7.82
2022-09-30T03:44:16.788Z,7.53
2022-09-30T03:46:50.499Z,7.53
2022-09-30T03:49:25.354Z,6.65
2022-09-30T03:51:58.652Z,7.97
2022-09-30T03:54:29.768Z,7.80
2022-09-30T03:57:03.619Z,7.00
2022-09-30T03:59:33.183Z,6.63
2022-09-30T04:02:03.797Z,6.95
2022-09-30T04:04:33.580Z,6.40
2022-09-30T04:07:02.607Z,6.38
2022-09-30T04:09:33.177Z,6.13
2022-09-30T04:12:02.894Z,7.07
2022-09-30T04:14:32.138Z,8.70
2022-09-30T04:17:01.302Z,7.38
2022-09-30T04:19:30.853Z,7.45
2022-09-30T04:22:00.516Z,7.25
2022-09-30T04:24:29.506Z,7.28
2022-09-30T04:27:00.384Z,7.18
2022-09-30T04:29:29.661Z,7.93
2022-09-30T04:31:59.246Z,7.65
2022-09-30T04:34:28.473Z,7.30
2022-09-30T04:36:57.559Z,7.88
2022-09-30T04:39:26.898Z,7.45
2022-09-30T04:41:56.189Z,7.88
2022-09-30T04:44:26.650Z,7.10
2022-09-30T04:46:56.072Z,7.63
2022-09-30T04:49:25.377Z,7.20
2022-09-30T04:51:54.549Z,6.65
2022-09-30T04:54:24.370Z,8.07
2022-09-30T04:56:53.456Z,7.38
2022-09-30T04:59:22.623Z,7.63
2022-09-30T05:01:53.394Z,8.88
2022-09-30T05:04:22.499Z,8.30
2022-09-30T05:06:51.753Z,8.90
2022-09-30T05:09:21.235Z,8.75
2022-09-30T05:11:50.706Z,8.13
2022-09-30T05:14:20.030Z,8.07
2022-09-30T05:16:49.445Z,7.55
2022-09-30T05:19:20.052Z,7.70
2022-09-30T05:21:49.638Z,7.10
2022-09-30T05:24:19.055Z,7.88
2022-09-30T05:26:48.178Z,7.93
2022-09-30T05:29:17.144Z,9.07
2022-09-30T05:31:46.473Z,8.82
2022-09-30T05:34:16.904Z,9.10
2022-09-30T05:36:48.423Z,10.15
2022-09-30T05:39:17.903Z,9.60
2022-09-30T05:41:47.732Z,8.77
2022-09-30T05:44:16.754Z,8.82
2022-09-30T05:46:46.264Z,8.82
2022-09-30T05:49:15.625Z,9.27
2022-09-30T05:51:46.153Z,8.70
2022-09-30T05:54:15.571Z,9.80
2022-09-30T05:56:44.690Z,9.85
2022-09-30T05:59:13.822Z,10.30
2022-09-30T06:01:43.084Z,9.48
2022-09-30T06:04:12.247Z,10.30
2022-09-30T06:06:41.830Z,10.43
2022-09-30T06:09:12.408Z,10.60
2022-09-30T06:11:42.962Z,10.18
2022-09-30T06:14:12.346Z,10.35
2022-09-30T06:16:42.015Z,9.18
2022-09-30T06:19:11.250Z,9.68
2022-09-30T06:21:40.464Z,9.00
2022-09-30T06:24:13.244Z,9.63
2022-09-30T06:26:44.978Z,12.20
2022-09-30T06:29:14.703Z,12.57
2022-09-30T06:31:44.070Z,11.00
2022-09-30T06:34:13.800Z,9.88
2022-09-30T06:36:42.812Z,9.80
2022-09-30T06:39:13.801Z,9.95
2022-09-30T06:41:44.728Z,9.43
2022-09-30T06:44:26.856Z,8.20
2022-09-30T06:46:56.620Z,8.15
2022-09-30T06:49:28.761Z,8.40
2022-09-30T06:52:01.153Z,7.78
2022-09-30T06:54:34.636Z,9.32
2022-09-30T06:57:05.384Z,8.20
2022-09-30T06:59:34.794Z,7.25
2022-09-30T07:02:04.138Z,7.60
2022-09-30T07:04:33.466Z,7.97
2022-09-30T07:07:03.200Z,7.45
2022-09-30T07:09:32.599Z,7.43
2022-09-30T07:12:01.876Z,7.50
2022-09-30T07:14:32.807Z,7.57
2022-09-30T07:17:04.370Z,7.82
2022-09-30T07:19:34.753Z,7.85
2022-09-30T07:22:18.336Z,9.23
2022-09-30T07:24:47.510Z,8.45
2022-09-30T07:27:16.952Z,9.27
2022-09-30T07:30:08.082Z,9.60
2022-09-30T07:32:38.579Z,8.45
2022-09-30T07:35:10.433Z,8.95
2022-09-30T07:37:40.818Z,7.72
2022-09-30T07:40:11.383Z,9.43
2022-09-30T07:42:46.103Z,8.93
2022-09-30T07:45:19.582Z,8.77
2022-09-30T07:47:53.535Z,8.93
2022-09-30T07:50:23.786Z,7.93
2022-09-30T07:52:56.491Z,7.70
2022-09-30T07:55:26.111Z,8.90
2022-09-30T07:57:55.340Z,8.68
2022-09-30T08:00:42.908Z,7.78
2022-09-30T08:03:13.142Z,8.57
2022-09-30T08:05:44.771Z,8.88
2022-09-30T08:08:14.634Z,8.88
2022-09-30T08:10:44.013Z,7.60
2022-09-30T08:13:14.914Z,7.97
2022-09-30T08:15:46.019Z,8.30
2022-09-30T08:18:15.460Z,7.43
2022-09-30T08:20:44.696Z,7.20
2022-09-30T08:23:14.157Z,8.20
2022-09-30T08:25:43.345Z,6.75
2022-09-30T08:28:12.753Z,7.00
2022-09-30T08:30:42.539Z,4.88
2022-09-30T08:33:14.177Z,4.57
2022-09-30T08:35:43.492Z,4.30
2022-09-30T08:38:12.767Z,3.90
2022-09-30T08:40:59.284Z,5.30
2022-09-30T08:43:40.440Z,4.78
2022-09-30T08:46:18.794Z,4.43
2022-09-30T08:49:03.508Z,4.55
2022-09-30T08:51:37.838Z,4.72
2022-09-30T08:54:12.983Z,5.18
2022-09-30T08:56:44.302Z,4.60
2022-09-30T08:59:23.344Z,5.43
2022-09-30T09:01:59.933Z,6.22
2022-09-30T09:04:30.777Z,4.97
2022-09-30T09:07:08.082Z,5.95
2022-09-30T09:09:53.633Z,5.03
2022-09-30T09:12:33.279Z,4.72
2022-09-30T09:15:31.048Z,4.40
2022-09-30T09:18:38.437Z,3.53
2022-09-30T09:21:30.051Z,3.90
2022-09-30T09:24:02.678Z,3.97
2022-09-30T09:26:38.325Z,3.58
2022-09-30T09:29:24.505Z,3.22
2022-09-30T09:31:54.949Z,3.13
2022-09-30T09:34:28.306Z,2.83
2022-09-30T09:37:12.659Z,3.17
2022-09-30T09:40:05.008Z,4.15
2022-09-30T09:42:54.507Z,2.83
2022-09-30T09:45:32.476Z,3.10
2022-09-30T09:48:02.098Z,3.00
2022-09-30T09:50:42.522Z,3.03
2022-09-30T09:53:45.361Z,3.25
2022-09-30T09:56:22.187Z,2.15
2022-09-30T09:59:10.536Z,2.22
2022-09-30T10:01:42.154Z,2.10
2022-09-30T10:04:16.588Z,2.00
2022-09-30T10:06:55.843Z,2.40
2022-09-30T10:09:28.481Z,2.50
2022-09-30T10:12:30.069Z,1.90
2022-09-30T10:15:14.815Z,2.13
2022-09-30T10:17:44.645Z,1.43
2022-09-30T10:20:29.347Z,1.10
2022-09-30T10:23:11.319Z,1.48
2022-09-30T10:25:40.646Z,1.30
2022-09-30T10:28:26.149Z,1.20
2022-09-30T10:30:59.169Z,1.27
2022-09-30T10:33:32.966Z,1.10
2022-09-30T10:36:15.473Z,1.40
2022-09-30T10:38:53.935Z,1.25
2022-09-30T10:41:26.446Z,1.67
2022-09-30T10:44:00.330Z,1.67
2022-09-30T10:46:33.104Z,1.88
2022-09-30T10:49:08.689Z,1.50
2022-09-30T10:51:38.147Z,1.55
2022-09-30T10:54:08.378Z,1.70
2022-09-30T10:56:44.235Z,2.03
2022-09-30T10:59:31.535Z,1.60
2022-09-30T11:05:04.257Z,2.00
2022-09-30T11:07:41.634Z,2.00
2022-09-30T11:10:32.802Z,2.22
2022-09-30T11:13:08.885Z,2.40
2022-09-30T11:15:46.603Z,2.10
2022-09-30T11:18:22.577Z,1.73
2022-09-30T11:20:59.337Z,1.80
2022-09-30T11:23:33.944Z,1.92
2022-09-30T11:26:10.498Z,2.25
2022-09-30T11:29:07.254Z,2.83
2022-09-30T11:31:44.196Z,2.30
2022-09-30T11:34:32.723Z,2.10
2022-09-30T11:37:08.250Z,2.80
2022-09-30T11:40:05.045Z,2.60
2022-09-30T11:42:47.244Z,2.30
2022-09-30T11:45:29.217Z,2.58
2022-09-30T11:48:18.495Z,2.83
2022-09-30T11:51:02.034Z,3.53
2022-09-30T11:53:43.139Z,3.80
2022-09-30T11:56:26.512Z,3.38
2022-09-30T11:59:01.596Z,3.73
2022-09-30T12:01:34.865Z,3.53
2022-09-30T12:04:10.976Z,3.40
2022-09-30T12:06:45.937Z,2.85
2022-09-30T12:09:22.988Z,3.25
2022-09-30T12:11:58.047Z,2.75
2022-09-30T12:17:04.280Z,3.20
2022-09-30T12:19:41.308Z,4.10
2022-09-30T12:22:16.916Z,3.30
2022-09-30T12:24:47.288Z,3.33
2022-09-30T12:27:22.696Z,3.33
2022-09-30T12:30:18.006Z,2.60
2022-09-30T12:33:20.993Z,1.73
2022-09-30T12:36:17.833Z,2.80
2022-09-30T12:39:22.181Z,2.40
2022-09-30T12:42:07.581Z,1.73
2022-09-30T12:45:00.647Z,2.00
2022-09-30T12:47:45.910Z,1.77
2022-09-30T12:50:19.093Z,1.95
2022-09-30T12:52:51.029Z,1.92
2022-09-30T12:55:31.233Z,1.92
2022-09-30T12:58:02.570Z,2.08
2022-09-30T13:00:34.982Z,1.85
2022-09-30T13:03:09.153Z,1.70
2022-09-30T13:06:06.491Z,1.45
2022-09-30T13:08:45.911Z,1.70
2022-09-30T13:11:37.426Z,1.58
2022-09-30T13:14:26.605Z,1.67
2022-09-30T13:17:25.563Z,1.38
2022-09-30T13:19:57.510Z,1.20
2022-09-30T13:22:58.169Z,1.15
2022-09-30T13:25:28.899Z,0.95
2022-09-30T13:28:30.789Z,1.38
2022-09-30T13:31:19.299Z,1.00
2022-09-30T13:34:06.605Z,1.30
2022-09-30T13:36:42.984Z,2.08
2022-09-30T13:39:26.715Z,1.60
2022-09-30T13:42:08.490Z,2.30
2022-09-30T13:44:45.918Z,1.50
2022-09-30T13:47:27.371Z,1.40
2022-09-30T13:50:04.030Z,1.60
2022-09-30T13:52:38.243Z,1.30
2022-09-30T13:55:16.233Z,1.40
2022-09-30T13:57:57.503Z,1.20
2022-09-30T14:00:48.620Z,1.15
2022-09-30T14:03:41.675Z,1.95
2022-09-30T14:06:23.156Z,1.40
2022-09-30T14:09:08.758Z,1.33
2022-09-30T14:12:14.824Z,1.38
2022-09-30T14:15:11.658Z,1.73
2022-09-30T14:17:55.896Z,1.75
2022-09-30T14:20:40.490Z,1.80
2022-09-30T14:23:15.695Z,2.13
2022-09-30T14:25:52.533Z,1.95
2022-09-30T14:28:32.716Z,2.20
2022-09-30T14:31:13.295Z,1.65
2022-09-30T14:33:47.842Z,1.88
2022-09-30T14:36:20.474Z,2.08
2022-09-30T14:39:02.377Z,2.10
2022-09-30T14:41:41.300Z,2.20
2022-09-30T14:44:17.968Z,2.67
2022-09-30T14:46:51.274Z,2.72
2022-09-30T14:49:30.428Z,2.60
2022-09-30T14:52:03.254Z,2.70
2022-09-30T14:54:34.338Z,2.97
2022-09-30T14:57:16.765Z,2.72
2022-09-30T14:59:45.759Z,3.25
2022-09-30T15:02:20.419Z,2.85
2022-09-30T15:04:53.993Z,3.20
2022-09-30T15:07:24.785Z,3.25
2022-09-30T15:09:53.865Z,2.60
2022-09-30T15:12:25.472Z,2.60
2022-09-30T15:14:57.505Z,2.15
2022-09-30T15:17:30.379Z,2.30
2022-09-30T15:20:00.914Z,2.13
2022-09-30T15:22:31.702Z,1.90
2022-09-30T15:25:01.612Z,2.35
2022-09-30T15:27:33.232Z,2.17
2022-09-30T15:30:05.452Z,1.80
2022-09-30T15:32:38.558Z,2.20
2022-09-30T15:35:13.575Z,2.50
2022-09-30T15:37:43.755Z,2.88
2022-09-30T15:40:34.493Z,3.13
2022-09-30T15:43:08.244Z,3.67
2022-09-30T15:45:39.589Z,4.32
2022-09-30T15:48:36.232Z,4.05
2022-09-30T15:51:26.199Z,4.60
2022-09-30T15:54:00.748Z,5.28
2022-09-30T15:56:36.278Z,6.55
2022-09-30T15:59:07.947Z,8.48
2022-09-30T16:01:40.469Z,8.18
2022-09-30T16:04:15.614Z,8.32
2022-09-30T16:06:48.459Z,10.82
2022-09-30T16:09:24.148Z,9.35
2022-09-30T16:12:05.422Z,10.02
2022-09-30T16:14:43.877Z,10.07
2022-09-30T16:17:20.645Z,7.97
2022-09-30T16:19:56.084Z,8.20
2022-09-30T16:22:51.880Z,7.97
2022-09-30T16:25:24.459Z,7.13
2022-09-30T16:27:59.378Z,7.50
2022-09-30T16:30:30.129Z,9.55
2022-09-30T16:33:04.397Z,12.38
2022-09-30T16:35:35.510Z,7.35
2022-09-30T16:38:07.201Z,8.27
2022-09-30T16:40:38.257Z,7.72
2022-09-30T16:43:11.845Z,6.97
2022-09-30T16:45:42.721Z,6.80
2022-09-30T16:48:16.905Z,7.00
2022-09-30T16:50:51.731Z,6.93
2022-09-30T16:53:22.139Z,7.80
2022-09-30T16:55:52.464Z,6.80
2022-09-30T16:58:22.039Z,7.38
2022-09-30T17:00:51.915Z,7.30
2022-09-30T17:03:23.357Z,8.02
2022-09-30T17:05:54.331Z,8.70
2022-09-30T17:08:24.938Z,10.50
2022-09-30T17:10:58.069Z,10.50
2022-09-30T17:13:30.192Z,9.48
2022-09-30T17:16:02.102Z,12.20
2022-09-30T17:18:31.516Z,13.02
2022-09-30T17:21:02.684Z,13.05
2022-09-30T17:23:31.872Z,14.68
2022-09-30T17:26:05.196Z,16.52
2022-09-30T17:28:35.182Z,14.30
2022-09-30T17:31:05.173Z,17.67
2022-09-30T17:33:36.174Z,16.98
2022-09-30T17:36:11.961Z,17.98
2022-09-30T17:38:41.679Z,21.15
2022-09-30T17:41:31.974Z,21.58
2022-09-30T17:44:02.720Z,16.30
2022-09-30T17:46:43.159Z,17.17
2022-09-30T17:49:13.049Z,20.13
2022-09-30T17:51:44.410Z,21.70
2022-09-30T17:54:13.472Z,20.45
2022-09-30T17:56:43.918Z,18.70
2022-09-30T17:59:14.936Z,18.88
2022-09-30T18:01:44.463Z,20.73
2022-09-30T18:04:13.809Z,18.55
2022-09-30T18:06:46.510Z,18.25
2022-09-30T18:09:15.954Z,18.30
2022-09-30T18:11:45.277Z,19.77
2022-09-30T18:14:14.894Z,20.45
2022-09-30T18:16:45.206Z,17.42
2022-09-30T18:21:50.482Z,22.63
2022-09-30T18:24:40.182Z,20.38
2022-09-30T18:27:09.709Z,21.52
2022-09-30T18:29:40.526Z,19.45
2022-09-30T18:32:10.206Z,18.40
2022-09-30T18:34:39.510Z,18.30
2022-09-30T18:37:10.471Z,19.85
2022-09-30T18:39:40.151Z,25.10
2022-09-30T18:42:10.161Z,22.77
2022-09-30T18:44:39.229Z,40.42
2022-09-30T18:47:08.684Z,28.95
2022-09-30T18:49:38.267Z,26.63
2022-09-30T18:52:11.207Z,23.67
2022-09-30T18:54:41.947Z,20.98
2022-09-30T18:57:11.206Z,27.38
2022-09-30T18:59:40.271Z,26.77
2022-09-30T19:02:11.770Z,26.58
2022-09-30T19:04:40.898Z,24.73
2022-09-30T19:07:10.105Z,24.45
2022-09-30T19:09:41.280Z,25.45
2022-09-30T19:12:13.532Z,26.38
2022-09-30T19:14:44.665Z,26.80
2022-09-30T19:17:15.300Z,30.08
2022-09-30T19:19:46.819Z,28.10
2022-09-30T19:22:16.191Z,26.45
2022-09-30T19:24:47.764Z,25.67
2022-09-30T19:27:17.478Z,27.55
2022-09-30T19:29:49.055Z,25.08
2022-09-30T19:32:19.054Z,26.73
2022-09-30T19:35:00.453Z,25.35
2022-09-30T19:37:35.894Z,24.70
2022-09-30T19:40:19.942Z,23.95
2022-09-30T19:45:25.698Z,23.20
2022-09-30T19:47:59.734Z,23.42
2022-09-30T19:50:30.035Z,22.10
2022-09-30T19:53:01.954Z,23.13
2022-09-30T19:55:44.997Z,20.67
2022-09-30T19:58:18.773Z,21.88
2022-09-30T20:00:56.443Z,22.63
2022-09-30T20:03:26.713Z,23.35
2022-09-30T20:06:01.186Z,21.13
2022-09-30T20:08:31.320Z,21.90
2022-09-30T20:11:06.410Z,21.77
2022-09-30T20:13:38.509Z,21.77
2022-09-30T20:16:10.295Z,21.98
2022-09-30T20:18:41.221Z,22.50
2022-09-30T20:21:12.036Z,22.27
2022-09-30T20:23:42.194Z,23.33
2022-09-30T20:26:15.516Z,23.13
2022-09-30T20:28:47.004Z,22.48
2022-09-30T20:31:17.275Z,22.05
2022-09-30T20:33:47.083Z,23.42
2022-09-30T20:36:16.544Z,22.02
2022-09-30T20:38:50.305Z,23.23
2022-09-30T20:41:21.192Z,21.48
2022-09-30T20:43:53.394Z,21.00
2022-09-30T20:46:25.967Z,21.50
2022-09-30T20:48:55.341Z,20.38
2022-09-30T20:51:24.929Z,19.27
2022-09-30T20:53:55.365Z,21.55
2022-09-30T20:56:28.564Z,19.98
2022-09-30T20:59:02.480Z,20.77
2022-09-30T21:01:31.924Z,20.45
2022-09-30T21:04:01.472Z,18.85
2022-09-30T21:06:31.498Z,19.63
2022-09-30T21:09:03.760Z,19.27
2022-09-30T21:11:35.300Z,18.90
2022-09-30T21:14:05.963Z,19.25
2022-09-30T21:16:35.313Z,18.20
2022-09-30T21:19:04.645Z,19.05
2022-09-30T21:21:34.182Z,18.13
2022-09-30T21:24:04.082Z,17.95
2022-09-30T21:26:36.675Z,17.65
2022-09-30T21:29:06.259Z,18.48
2022-09-30T21:31:37.935Z,17.67
2022-09-30T21:34:07.449Z,19.35
2022-09-30T21:36:36.530Z,17.20
2022-09-30T21:39:05.807Z,16.38
2022-09-30T21:41:36.774Z,16.52
2022-09-30T21:44:06.042Z,16.00
2022-09-30T21:46:35.786Z,17.73
2022-09-30T21:49:07.422Z,17.45
2022-09-30T21:51:36.706Z,18.25
2022-09-30T21:54:06.034Z,17.30
2022-09-30T21:56:37.077Z,17.20
2022-09-30T21:59:06.562Z,18.10
2022-09-30T22:01:37.537Z,17.92
2022-09-30T22:04:07.201Z,17.90
2022-09-30T22:06:36.567Z,16.08
2022-09-30T22:09:06.127Z,15.90
2022-09-30T22:11:37.177Z,17.70
2022-09-30T22:14:06.769Z,16.33
2022-09-30T22:16:36.407Z,16.80
2022-09-30T22:19:09.010Z,17.42
2022-09-30T22:21:39.188Z,17.08
2022-09-30T22:24:10.410Z,16.67
2022-09-30T22:26:42.586Z,17.98
2022-09-30T22:29:12.917Z,16.58
2022-09-30T22:31:42.067Z,15.55
2022-09-30T22:34:32.291Z,15.05
2022-09-30T22:37:19.101Z,16.02
2022-09-30T22:39:48.464Z,14.80
2022-09-30T22:42:19.374Z,16.15
2022-09-30T22:44:49.772Z,19.48
2022-09-30T22:47:19.214Z,22.70
2022-09-30T22:49:48.390Z,23.83
2022-09-30T22:52:17.335Z,23.60
2022-09-30T22:54:46.552Z,20.75
2022-09-30T22:57:16.308Z,18.88
2022-09-30T22:59:47.637Z,21.08
2022-09-30T23:02:17.256Z,23.40
2022-09-30T23:04:47.032Z,22.27
2022-09-30T23:07:16.192Z,22.65
2022-09-30T23:09:45.537Z,20.00
2022-09-30T23:12:14.874Z,20.70
2022-09-30T23:14:45.493Z,19.52
2022-09-30T23:17:14.732Z,20.42
2022-09-30T23:19:43.892Z,19.55
2022-09-30T23:22:13.517Z,19.77
2022-09-30T23:24:42.892Z,19.65
2022-09-30T23:27:12.057Z,18.55
2022-09-30T23:29:41.128Z,18.90
2022-09-30T23:32:11.855Z,17.80
2022-09-30T23:34:41.110Z,18.13
2022-09-30T23:37:10.257Z,19.45
2022-09-30T23:39:40.874Z,19.90
2022-09-30T23:42:10.010Z,17.95
2022-09-30T23:44:39.368Z,19.02
2022-09-30T23:47:19.197Z,18.70
2022-09-30T23:49:48.721Z,18.45
2022-09-30T23:52:18.084Z,18.88
2022-09-30T23:54:47.487Z,31.15
2022-09-30T23:57:16.560Z,24.95
2022-09-30T23:59:45.876Z,28.77
